Orin, Wyoming
Current Conditions -  °F | °C
As of 4:53 PM on Thursday 27 Nov 2014 (Local Time) from KDGW Reporting Station
Clear Clear  
Wind Chill: 50°   Ceiling: Unl
Heat Index: 50°   Visibility: 10mi
Dew Point: 26°   Wind: 14mph
Humidity: 39%   Direction: 290°WNW
Pressure: 30"   Gusts: NA
Location:  43.1775°N, 105.367°W
Report Text: KDGW 272353Z AUTO 29012KT 10SM CLR 10/M03 A3000 RMK AO2 SLP172 T01001033 10150 20089 53006
Loading
Personal Weather Stations






























Interactive Weather Map New forecast layout! Learn more

10-Day Weather Forecast

Advertisements
Track Severe Weather on mobile